Time;durP1;ratioP1;P1;durP2;ratioP2;P2;SDS_P1;SDS_P2;PMS_P1;PMS_P2;Temp;Humidity;BMP_temperature;BMP_pressure;BME280_temperature;BME280_humidity;BME280_pressure;Samples;Min_cycle;Max_cycle;Signal;HPM_P1;HPM_P2
2021/09/30 00:00:53;;;;;;;23.52;6.97;;;11.70;99.90;;;;;;4956368;28;20574;-88
2021/09/30 00:03:20;;;;;;;18.90;9.18;;;11.70;99.90;;;;;;4960772;28;20617;-88
2021/09/30 00:05:48;;;;;;;20.17;8.48;;;11.80;99.90;;;;;;4943992;28;20120;-88
2021/09/30 00:08:15;;;;;;;17.98;8.63;;;11.80;99.90;;;;;;4962913;28;20054;-88
2021/09/30 00:10:55;;;;;;;16.73;7.30;;;11.80;99.90;;;;;;4929557;28;20043;-89
2021/09/30 00:35:30;;;;;;;18.88;6.97;;;12.00;99.90;;;;;;4959752;28;20145;-88
2021/09/30 00:54:32;;;;;;;14.07;9.23;;;12.00;99.90;;;;;;4941074;28;20300;-89
2021/09/30 01:18:38;;;;;;;15.87;9.17;;;12.10;99.90;;;;;;4945140;28;20297;-86
2021/09/30 02:25:22;;;;;;;16.95;9.20;;;12.10;99.90;;;;;;4943062;28;20673;-87
2021/09/30 03:01:04;;;;;;;15.18;8.07;;;12.20;99.90;;;;;;4957630;28;20054;-87
2021/09/30 03:03:35;;;;;;;15.02;7.72;;;12.20;99.90;;;;;;4941812;28;20055;-88
2021/09/30 03:06:05;;;;;;;17.48;8.05;;;12.20;99.90;;;;;;4958287;28;20039;-88
2021/09/30 03:08:51;;;;;;;17.60;9.95;;;12.10;99.90;;;;;;4963689;28;20067;-87
2021/09/30 03:11:21;;;;;;;13.55;8.52;;;12.10;99.90;;;;;;4943535;28;20724;-88
2021/09/30 03:13:51;;;;;;;15.20;9.32;;;12.20;99.90;;;;;;4948337;28;20121;-88
2021/09/30 03:22:14;;;;;;;14.48;7.68;;;12.20;99.90;;;;;;4961016;28;20125;-88
2021/09/30 03:24:45;;;;;;;13.48;8.60;;;12.20;99.90;;;;;;4961806;28;20436;-87
2021/09/30 03:27:12;;;;;;;21.50;8.38;;;12.20;99.90;;;;;;4957461;28;20062;-86
2021/09/30 03:29:40;;;;;;;21.33;9.85;;;12.10;99.90;;;;;;4946068;28;20050;-88
2021/09/30 03:32:08;;;;;;;15.70;8.10;;;12.10;99.90;;;;;;4960294;28;20051;-88
2021/09/30 03:34:54;;;;;;;15.75;8.63;;;12.10;99.90;;;;;;4962578;28;20053;-86
2021/09/30 03:37:23;;;;;;;12.75;9.57;;;12.10;99.90;;;;;;4927186;28;20081;-88
2021/09/30 03:39:50;;;;;;;15.20;9.77;;;12.10;99.90;;;;;;4945541;28;20189;-88
2021/09/30 03:42:18;;;;;;;12.13;8.05;;;12.10;99.90;;;;;;4938979;28;20126;-88
2021/09/30 03:44:50;;;;;;;15.25;8.15;;;12.10;99.90;;;;;;4944658;28;20047;-88
2021/09/30 03:47:18;;;;;;;14.40;8.65;;;12.10;99.90;;;;;;4928085;28;20042;-86
2021/09/30 03:49:52;;;;;;;10.80;8.77;;;12.10;99.90;;;;;;4947211;28;20547;-87
2021/09/30 03:53:15;;;;;;;19.48;10.00;;;12.10;99.90;;;;;;4941379;28;20124;-88
2021/09/30 04:00:36;;;;;;;17.40;7.97;;;12.10;99.90;;;;;;4940211;28;20133;-87
2021/09/30 04:03:04;;;;;;;19.60;10.13;;;12.10;99.90;;;;;;4942381;28;20054;-87
2021/09/30 04:05:34;;;;;;;14.98;8.18;;;12.10;99.90;;;;;;4945039;28;20058;-88
2021/09/30 04:08:02;;;;;;;13.10;8.93;;;12.10;99.90;;;;;;4940985;28;20558;-87
2021/09/30 04:10:29;;;;;;;14.05;8.25;;;12.20;99.90;;;;;;4943854;28;20532;-86
2021/09/30 04:12:56;;;;;;;12.02;7.47;;;12.10;99.90;;;;;;4922555;28;20583;-87
2021/09/30 04:15:23;;;;;;;14.68;10.70;;;12.10;99.90;;;;;;4943600;28;20054;-87
2021/09/30 04:17:50;;;;;;;12.80;8.88;;;12.20;99.90;;;;;;4954484;28;20214;-87
2021/09/30 04:20:22;;;;;;;15.50;8.98;;;12.10;99.90;;;;;;4962697;28;20408;-87
2021/09/30 04:22:56;;;;;;;14.52;9.75;;;12.20;99.90;;;;;;4944095;28;20089;-86
2021/09/30 04:25:24;;;;;;;18.10;9.95;;;12.20;99.90;;;;;;4957478;28;20048;-87
2021/09/30 04:27:51;;;;;;;18.85;9.07;;;12.10;99.90;;;;;;4928342;28;20723;-88
2021/09/30 04:30:18;;;;;;;24.45;9.50;;;12.10;99.90;;;;;;4943741;28;20447;-86
2021/09/30 04:32:58;;;;;;;17.33;8.88;;;12.10;99.90;;;;;;4940867;28;20532;-88
2021/09/30 04:35:27;;;;;;;11.82;8.85;;;12.10;99.90;;;;;;4945298;28;20035;-87
2021/09/30 04:37:54;;;;;;;13.30;8.05;;;12.10;99.90;;;;;;4961244;28;20059;-88
2021/09/30 04:40:21;;;;;;;16.30;9.35;;;12.10;99.90;;;;;;4942356;28;20058;-88
2021/09/30 04:42:48;;;;;;;11.63;9.93;;;12.10;99.90;;;;;;4941066;28;20093;-88
2021/09/30 04:45:15;;;;;;;13.40;8.27;;;12.20;99.90;;;;;;4954832;28;20110;-87
2021/09/30 04:47:46;;;;;;;18.08;8.88;;;12.10;99.90;;;;;;4940533;28;20047;-87
2021/09/30 04:50:14;;;;;;;14.68;8.85;;;12.10;99.90;;;;;;4956940;28;20065;-87
2021/09/30 04:52:41;;;;;;;12.10;9.20;;;12.20;99.90;;;;;;4944473;28;20106;-88
2021/09/30 04:55:09;;;;;;;11.85;8.35;;;12.10;99.90;;;;;;4935770;28;20110;-87
2021/09/30 04:57:36;;;;;;;15.38;9.30;;;12.10;99.90;;;;;;4959693;28;20168;-88
2021/09/30 05:00:05;;;;;;;20.25;9.10;;;12.10;99.90;;;;;;4942547;28;20090;-87
2021/09/30 05:02:58;;;;;;;16.30;8.27;;;12.10;99.90;;;;;;4955262;28;20356;-88
2021/09/30 05:05:26;;;;;;;15.77;9.05;;;12.20;99.90;;;;;;4945260;28;20058;-88
2021/09/30 05:07:53;;;;;;;19.23;9.02;;;12.10;99.90;;;;;;4930365;28;20042;-87
2021/09/30 05:10:30;;;;;;;15.48;8.35;;;12.10;99.90;;;;;;4944270;28;20062;-87
2021/09/30 05:13:00;;;;;;;18.75;9.27;;;12.10;99.90;;;;;;4939303;28;20765;-85
2021/09/30 05:15:27;;;;;;;13.77;9.15;;;12.10;99.90;;;;;;4928928;28;20039;-87
2021/09/30 05:17:56;;;;;;;17.90;9.27;;;12.10;99.90;;;;;;4951381;28;20047;-87
2021/09/30 05:20:23;;;;;;;19.77;9.48;;;12.10;99.90;;;;;;4943896;28;20539;-87
2021/09/30 05:22:51;;;;;;;13.48;9.77;;;12.10;99.90;;;;;;4928377;28;20043;-87
2021/09/30 05:25:18;;;;;;;16.13;10.30;;;12.10;99.90;;;;;;4940809;28;20044;-88
2021/09/30 05:27:45;;;;;;;15.15;9.15;;;12.10;99.90;;;;;;4942680;28;20051;-87
2021/09/30 05:30:14;;;;;;;13.40;11.27;;;12.10;99.90;;;;;;4943607;28;20153;-87
2021/09/30 05:32:41;;;;;;;17.48;9.15;;;12.10;99.90;;;;;;4942402;28;20058;-86
2021/09/30 05:35:17;;;;;;;18.77;11.75;;;12.10;99.90;;;;;;4940963;28;20599;-86
2021/09/30 05:37:48;;;;;;;17.33;11.02;;;12.10;99.90;;;;;;4938569;28;20428;-85
2021/09/30 05:40:16;;;;;;;16.63;10.52;;;12.10;99.90;;;;;;4944250;28;20039;-85
2021/09/30 05:42:47;;;;;;;19.30;9.52;;;12.20;99.90;;;;;;4936374;28;20118;-87
2021/09/30 05:45:16;;;;;;;14.52;10.32;;;12.20;99.90;;;;;;4954598;28;22756;-87
2021/09/30 05:47:44;;;;;;;13.90;10.40;;;12.20;99.90;;;;;;4956748;28;20058;-86
2021/09/30 05:50:15;;;;;;;15.60;10.00;;;12.20;99.90;;;;;;4942117;28;20039;-87
2021/09/30 05:53:00;;;;;;;17.45;9.50;;;12.20;99.90;;;;;;4951693;28;20105;-86
2021/09/30 05:55:59;;;;;;;15.90;10.15;;;12.20;99.90;;;;;;4944021;28;20157;-86
2021/09/30 05:58:26;;;;;;;13.27;10.65;;;12.20;99.90;;;;;;4942020;28;20150;-87
2021/09/30 06:09:04;;;;;;;16.67;9.63;;;12.20;99.90;;;;;;4910976;28;20050;-87
2021/09/30 06:12:26;;;;;;;15.27;10.48;;;12.20;99.90;;;;;;4958133;28;20133;-87
2021/09/30 06:14:54;;;;;;;13.75;10.02;;;12.30;99.90;;;;;;4942364;28;20039;-87
2021/09/30 06:17:21;;;;;;;17.95;9.95;;;12.30;99.90;;;;;;4940369;28;20051;-88
2021/09/30 06:19:53;;;;;;;15.10;9.80;;;12.30;99.90;;;;;;4941589;28;20118;-88
2021/09/30 06:22:20;;;;;;;13.23;10.82;;;12.30;99.90;;;;;;4939167;28;20046;-88
2021/09/30 06:24:47;;;;;;;20.45;9.65;;;12.30;99.90;;;;;;4942407;28;20062;-87
2021/09/30 06:27:31;;;;;;;14.82;10.63;;;12.30;99.90;;;;;;4938269;28;20066;-87
2021/09/30 06:29:59;;;;;;;17.00;11.77;;;12.40;99.90;;;;;;4942809;28;20054;-87
2021/09/30 06:32:28;;;;;;;23.52;9.40;;;12.40;99.90;;;;;;4944183;28;20070;-87
2021/09/30 06:35:05;;;;;;;17.98;9.52;;;12.40;99.90;;;;;;4957506;28;20635;-87
2021/09/30 06:37:39;;;;;;;20.25;10.13;;;12.40;99.90;;;;;;4941879;28;20512;-89
2021/09/30 06:40:08;;;;;;;16.05;8.63;;;12.40;99.90;;;;;;4943729;28;20039;-87
2021/09/30 06:42:35;;;;;;;12.82;9.75;;;12.40;99.90;;;;;;4942231;28;20050;-87
2021/09/30 06:45:11;;;;;;;17.17;9.93;;;12.40;99.90;;;;;;4946125;28;20051;-87
2021/09/30 06:47:57;;;;;;;16.92;10.02;;;12.40;99.90;;;;;;4948706;28;20141;-88
2021/09/30 06:50:27;;;;;;;10.82;8.70;;;12.40;99.90;;;;;;4960364;28;20034;-88
2021/09/30 06:53:13;;;;;;;16.85;9.52;;;12.40;99.90;;;;;;4963831;28;20137;-87
2021/09/30 06:55:49;;;;;;;15.63;10.15;;;12.40;99.90;;;;;;4961312;28;20070;-87
2021/09/30 06:58:44;;;;;;;19.83;10.15;;;12.30;99.90;;;;;;4963040;28;20074;-87
2021/09/30 07:01:32;;;;;;;16.23;10.27;;;12.30;99.90;;;;;;4950311;28;20109;-87
2021/09/30 07:04:18;;;;;;;15.00;10.05;;;12.30;99.90;;;;;;4949708;28;20097;-87
2021/09/30 07:07:11;;;;;;;14.57;10.25;;;12.30;99.90;;;;;;4950153;28;20062;-87
2021/09/30 07:09:38;;;;;;;20.90;12.25;;;12.30;99.90;;;;;;4964683;28;20153;-88
2021/09/30 07:12:05;;;;;;;15.25;10.13;;;12.30;99.90;;;;;;4963911;28;20057;-87
2021/09/30 07:14:32;;;;;;;16.98;10.15;;;12.30;99.90;;;;;;4945343;28;20654;-88
2021/09/30 07:17:03;;;;;;;17.35;10.80;;;12.30;99.90;;;;;;4959682;28;20082;-87
2021/09/30 07:19:32;;;;;;;14.90;9.02;;;12.30;99.90;;;;;;4964629;28;20105;-87
2021/09/30 07:22:00;;;;;;;19.20;10.52;;;12.30;99.90;;;;;;4964697;28;20047;-87
2021/09/30 07:24:27;;;;;;;18.65;10.93;;;12.30;99.90;;;;;;4949138;28;20091;-87
2021/09/30 07:26:54;;;;;;;17.92;10.80;;;12.30;99.90;;;;;;4961603;28;20046;-87
2021/09/30 07:29:21;;;;;;;24.05;11.48;;;12.30;99.90;;;;;;4958509;28;20058;-87
2021/09/30 07:31:49;;;;;;;13.55;11.02;;;12.30;99.90;;;;;;4961331;28;20818;-87
2021/09/30 07:34:16;;;;;;;17.08;11.27;;;12.30;99.90;;;;;;4963394;28;20198;-88
2021/09/30 07:36:45;;;;;;;15.10;10.93;;;12.30;99.90;;;;;;4927969;28;20664;-88
2021/09/30 07:39:16;;;;;;;18.20;11.35;;;12.40;99.90;;;;;;4958432;28;20046;-88
2021/09/30 07:41:45;;;;;;;16.70;11.23;;;12.40;99.90;;;;;;4940792;28;20046;-88
2021/09/30 07:44:12;;;;;;;18.67;11.52;;;12.40;99.90;;;;;;4914035;28;20047;-90
2021/09/30 07:46:41;;;;;;;16.65;11.20;;;12.40;99.90;;;;;;4943800;28;20397;-88
2021/09/30 07:49:08;;;;;;;17.58;12.43;;;12.40;99.90;;;;;;4926498;28;20110;-88
2021/09/30 07:51:36;;;;;;;18.73;12.40;;;12.30;99.90;;;;;;4923277;28;20047;-90
2021/09/30 07:54:05;;;;;;;15.38;10.35;;;12.30;99.90;;;;;;4958995;28;20145;-88
2021/09/30 07:56:37;;;;;;;16.73;11.77;;;12.20;99.90;;;;;;4960506;28;20552;-87
2021/09/30 07:59:04;;;;;;;23.90;13.90;;;12.20;99.90;;;;;;4955644;28;20074;-88
2021/09/30 08:01:31;;;;;;;17.15;12.75;;;12.20;99.90;;;;;;4959586;28;20054;-87
2021/09/30 08:03:59;;;;;;;16.20;12.55;;;12.20;99.90;;;;;;4961068;28;20094;-88
2021/09/30 08:06:27;;;;;;;21.88;13.02;;;12.20;99.90;;;;;;4964429;28;20105;-87
2021/09/30 08:08:55;;;;;;;19.40;12.57;;;12.20;99.90;;;;;;4963393;28;20047;-87
2021/09/30 08:11:27;;;;;;;27.27;13.95;;;12.30;99.90;;;;;;4962200;28;20545;-87
2021/09/30 08:13:54;;;;;;;18.58;13.93;;;12.30;99.90;;;;;;4961730;28;20064;-87
2021/09/30 08:16:23;;;;;;;18.27;13.18;;;12.30;99.90;;;;;;4965156;28;20799;-87
2021/09/30 08:18:50;;;;;;;17.67;12.63;;;12.30;99.90;;;;;;4946525;28;20056;-87
2021/09/30 08:21:18;;;;;;;17.00;14.45;;;12.40;99.90;;;;;;4940619;28;20066;-87
2021/09/30 08:23:45;;;;;;;16.95;12.82;;;12.50;99.90;;;;;;4947375;28;20110;-88
2021/09/30 08:26:15;;;;;;;15.82;12.95;;;12.50;99.90;;;;;;4965006;28;20078;-87
2021/09/30 08:28:42;;;;;;;22.48;15.73;;;12.60;99.90;;;;;;4946166;28;20485;-87
2021/09/30 08:31:09;;;;;;;21.40;13.68;;;12.60;99.90;;;;;;4945887;28;20043;-87
2021/09/30 08:33:40;;;;;;;19.13;12.80;;;12.60;99.90;;;;;;4962385;28;20078;-87
2021/09/30 08:36:11;;;;;;;19.88;14.95;;;12.60;99.90;;;;;;4965343;28;20050;-87
2021/09/30 08:38:40;;;;;;;19.65;13.45;;;12.60;99.90;;;;;;4963765;28;20042;-87
2021/09/30 08:41:10;;;;;;;18.42;14.13;;;12.70;99.90;;;;;;4962885;28;20039;-87
2021/09/30 08:43:37;;;;;;;22.15;14.00;;;12.70;99.90;;;;;;4944342;28;20051;-87
2021/09/30 08:46:06;;;;;;;17.77;13.45;;;12.70;99.90;;;;;;4963831;28;20621;-87
2021/09/30 08:48:34;;;;;;;19.38;13.60;;;12.70;99.90;;;;;;4962482;28;20412;-87
2021/09/30 08:51:03;;;;;;;22.48;13.82;;;12.70;99.90;;;;;;4962337;28;20050;-87
2021/09/30 08:53:30;;;;;;;22.00;14.63;;;12.80;99.90;;;;;;4942721;28;20057;-87
2021/09/30 08:55:57;;;;;;;19.98;13.75;;;12.70;99.90;;;;;;4960933;28;20046;-87
2021/09/30 08:58:26;;;;;;;19.53;14.70;;;12.70;99.90;;;;;;4962268;28;20062;-87
2021/09/30 09:00:58;;;;;;;17.42;13.18;;;12.80;99.90;;;;;;4963673;28;20292;-87
2021/09/30 09:03:37;;;;;;;18.90;15.18;;;12.80;99.90;;;;;;4943838;28;20822;-87
2021/09/30 09:06:07;;;;;;;22.30;14.27;;;12.80;99.90;;;;;;4963188;28;20049;-87
2021/09/30 09:08:35;;;;;;;32.92;13.85;;;12.70;99.90;;;;;;4963263;28;20085;-87
2021/09/30 09:11:05;;;;;;;23.48;13.80;;;12.80;99.90;;;;;;4945840;28;20049;-87
2021/09/30 09:13:32;;;;;;;22.33;14.95;;;12.80;99.90;;;;;;4961015;28;20101;-86
2021/09/30 09:16:06;;;;;;;27.20;14.60;;;12.80;99.90;;;;;;4963258;28;20054;-87
2021/09/30 09:18:38;;;;;;;23.35;12.77;;;12.80;99.90;;;;;;4959377;28;20925;-87
2021/09/30 09:21:10;;;;;;;20.98;14.65;;;12.90;99.90;;;;;;4962892;28;20066;-87
2021/09/30 09:23:55;;;;;;;19.63;14.52;;;12.90;99.90;;;;;;4958552;28;20054;-87
2021/09/30 09:26:32;;;;;;;21.90;15.82;;;12.90;99.90;;;;;;4961373;28;20065;-87
2021/09/30 09:29:02;;;;;;;21.80;12.60;;;13.00;99.90;;;;;;4959050;28;20047;-86
2021/09/30 09:31:42;;;;;;;21.83;13.18;;;13.00;99.90;;;;;;4959855;28;20058;-86
2021/09/30 09:34:20;;;;;;;15.98;13.23;;;13.10;99.90;;;;;;4959701;28;20045;-86
2021/09/30 09:36:50;;;;;;;19.52;14.07;;;13.10;99.90;;;;;;4918269;29;20044;-87
2021/09/30 09:39:32;;;;;;;20.90;15.43;;;13.20;99.90;;;;;;4922500;28;20490;-86
2021/09/30 09:42:08;;;;;;;26.13;15.68;;;13.40;99.90;;;;;;4916350;28;20103;-87
2021/09/30 09:44:55;;;;;;;20.73;16.13;;;13.40;99.90;;;;;;4928182;28;20122;-87
2021/09/30 09:47:24;;;;;;;23.60;16.10;;;13.60;99.90;;;;;;4920823;28;20130;-87
2021/09/30 09:50:25;;;;;;;22.13;14.67;;;13.80;99.90;;;;;;4914635;28;20122;-88
2021/09/30 09:52:56;;;;;;;21.50;13.90;;;13.90;99.90;;;;;;4926275;28;20297;-87
2021/09/30 09:55:37;;;;;;;19.77;15.57;;;14.00;99.90;;;;;;4920472;28;20729;-87
2021/09/30 09:58:15;;;;;;;21.33;14.30;;;14.10;99.90;;;;;;4922494;28;20043;-87
2021/09/30 10:01:02;;;;;;;20.70;15.77;;;14.20;99.90;;;;;;4917442;28;20059;-89
2021/09/30 10:03:32;;;;;;;33.75;16.55;;;14.20;99.90;;;;;;4917393;28;20698;-87
2021/09/30 10:06:04;;;;;;;20.38;16.45;;;14.10;99.90;;;;;;4920730;29;20750;-87
2021/09/30 10:08:32;;;;;;;19.02;14.90;;;14.00;99.90;;;;;;4922389;28;20092;-87
2021/09/30 10:11:00;;;;;;;26.10;16.48;;;13.90;99.90;;;;;;4918400;28;20058;-87
2021/09/30 10:13:28;;;;;;;22.75;15.35;;;13.80;99.90;;;;;;4918375;28;20059;-86
2021/09/30 10:15:55;;;;;;;24.73;16.30;;;13.80;99.90;;;;;;4918856;28;20118;-87
2021/09/30 10:18:26;;;;;;;30.52;16.67;;;13.80;99.90;;;;;;4914784;29;20091;-87
2021/09/30 10:20:55;;;;;;;19.80;15.95;;;13.70;99.90;;;;;;4927777;28;20150;-87
2021/09/30 10:23:26;;;;;;;20.50;16.73;;;13.60;99.90;;;;;;4924588;29;20086;-87
2021/09/30 10:26:19;;;;;;;23.83;16.75;;;13.60;99.90;;;;;;4927627;29;20801;-88
2021/09/30 10:28:46;;;;;;;23.48;17.02;;;13.50;99.90;;;;;;4926486;29;20052;-87
2021/09/30 10:31:19;;;;;;;29.55;18.58;;;13.50;99.90;;;;;;4924623;28;20048;-87
2021/09/30 10:33:46;;;;;;;26.10;18.10;;;13.50;99.90;;;;;;4926358;29;20143;-87
2021/09/30 10:36:37;;;;;;;26.52;17.67;;;13.30;99.90;;;;;;4957735;28;20055;-87
2021/09/30 10:39:16;;;;;;;27.30;18.63;;;13.30;99.90;;;;;;4953769;28;20043;-87
2021/09/30 10:41:44;;;;;;;27.23;18.65;;;13.30;99.90;;;;;;4956172;28;20051;-87
2021/09/30 10:44:13;;;;;;;33.00;17.60;;;13.30;99.90;;;;;;4947299;28;20043;-88
2021/09/30 10:46:45;;;;;;;20.27;18.10;;;13.30;99.90;;;;;;4947030;28;20080;-88
2021/09/30 10:49:33;;;;;;;26.08;19.30;;;13.30;99.90;;;;;;4946116;28;20182;-88
2021/09/30 10:52:20;;;;;;;21.83;18.50;;;13.20;99.90;;;;;;4964457;28;20051;-87
2021/09/30 10:55:21;;;;;;;29.55;17.92;;;13.20;99.90;;;;;;4948401;28;20046;-87
2021/09/30 10:57:54;;;;;;;21.48;17.30;;;13.30;99.90;;;;;;4957785;28;20480;-89
2021/09/30 11:00:21;;;;;;;26.05;18.63;;;13.20;99.90;;;;;;4920406;28;20737;-89
2021/09/30 11:03:10;;;;;;;26.80;19.33;;;13.20;99.90;;;;;;4866515;28;20059;-89
2021/09/30 11:06:02;;;;;;;36.58;18.75;;;13.10;99.90;;;;;;4863788;28;20047;-90
2021/09/30 11:08:30;;;;;;;24.15;19.42;;;13.10;99.90;;;;;;4869491;28;20108;-92
2021/09/30 11:11:04;;;;;;;27.15;18.55;;;13.00;99.90;;;;;;4873306;28;20054;-91
2021/09/30 11:13:42;;;;;;;24.58;16.30;;;12.90;99.90;;;;;;4883545;28;20042;-90
2021/09/30 11:16:12;;;;;;;24.15;17.25;;;12.90;99.90;;;;;;4876462;28;20058;-90
2021/09/30 11:18:51;;;;;;;15.32;12.55;;;12.90;99.90;;;;;;4895524;28;20058;-90
2021/09/30 11:21:32;;;;;;;13.40;9.30;;;12.90;99.90;;;;;;4867280;28;20110;-90
2021/09/30 11:24:19;;;;;;;16.15;9.25;;;13.00;99.90;;;;;;4879930;28;20055;-90
2021/09/30 11:26:49;;;;;;;10.82;8.45;;;13.00;99.90;;;;;;4873956;28;20061;-90
2021/09/30 11:29:19;;;;;;;13.38;8.50;;;13.00;99.90;;;;;;4891069;28;20397;-90
2021/09/30 11:32:09;;;;;;;18.05;8.45;;;13.00;99.90;;;;;;4895180;28;20058;-90
2021/09/30 11:34:46;;;;;;;11.35;7.25;;;13.10;99.90;;;;;;4912995;28;20059;-89
2021/09/30 11:37:28;;;;;;;12.18;8.55;;;13.20;99.90;;;;;;4897055;28;20053;-91
2021/09/30 11:40:01;;;;;;;9.60;5.35;;;13.20;99.90;;;;;;4908761;28;20042;-90
2021/09/30 11:42:45;;;;;;;9.63;6.07;;;13.20;99.90;;;;;;4905542;28;20046;-91
2021/09/30 11:45:34;;;;;;;7.97;5.75;;;13.20;99.90;;;;;;4929796;28;20416;-91
2021/09/30 11:48:10;;;;;;;7.68;6.32;;;13.20;99.90;;;;;;4854889;28;20054;-90
2021/09/30 11:50:40;;;;;;;9.77;5.15;;;13.10;99.90;;;;;;4869704;28;20078;-92
2021/09/30 11:53:09;;;;;;;;;;;13.10;99.90;;;;;;4913948;28;20069;-91
2021/09/30 11:55:41;;;;;;;7.68;5.35;;;13.10;99.90;;;;;;4898806;28;19926;-88
2021/09/30 11:58:19;;;;;;;9.93;5.72;;;13.10;99.90;;;;;;4897418;28;20062;-89
2021/09/30 12:00:48;;;;;;;7.13;5.13;;;13.10;99.90;;;;;;4896780;28;20050;-90
2021/09/30 12:03:19;;;;;;;10.48;4.85;;;13.00;99.90;;;;;;4901998;28;20055;-90
2021/09/30 12:05:47;;;;;;;6.30;4.22;;;13.10;99.90;;;;;;4905220;28;20050;-89
2021/09/30 12:08:15;;;;;;;5.68;4.22;;;13.00;99.90;;;;;;4905334;28;20054;-88
2021/09/30 12:10:42;;;;;;;5.63;4.00;;;13.10;99.90;;;;;;4918727;28;20059;-88
2021/09/30 12:13:15;;;;;;;4.05;3.65;;;13.10;99.90;;;;;;4917219;28;20093;-90
2021/09/30 12:15:42;;;;;;;4.15;3.72;;;13.00;99.90;;;;;;4903802;28;20050;-90
2021/09/30 12:18:19;;;;;;;4.25;3.50;;;13.00;99.90;;;;;;4904887;28;20082;-91
2021/09/30 12:20:57;;;;;;;10.93;3.47;;;13.00;99.90;;;;;;4908033;28;20141;-91
2021/09/30 12:23:26;;;;;;;4.00;3.42;;;13.00;99.90;;;;;;4916805;28;20153;-92
2021/09/30 12:25:53;;;;;;;4.55;3.33;;;13.00;99.90;;;;;;4901561;28;20110;-91
2021/09/30 12:28:20;;;;;;;4.40;2.95;;;12.90;99.90;;;;;;4940249;28;20057;-90
2021/09/30 12:30:48;;;;;;;3.95;3.47;;;12.80;99.90;;;;;;4907718;28;20348;-90
2021/09/30 12:33:15;;;;;;;4.22;2.70;;;12.80;99.90;;;;;;4921745;28;22958;-90
2021/09/30 12:35:43;;;;;;;3.88;2.28;;;12.70;99.90;;;;;;4915865;28;20043;-90
2021/09/30 12:38:21;;;;;;;4.53;3.38;;;12.70;99.90;;;;;;4908761;28;20066;-90
2021/09/30 12:40:52;;;;;;;4.13;1.95;;;12.60;99.90;;;;;;4919486;28;20055;-91
2021/09/30 12:43:27;;;;;;;4.70;2.90;;;12.60;99.90;;;;;;4917468;28;20051;-90
2021/09/30 12:46:03;;;;;;;3.13;2.17;;;12.60;99.90;;;;;;4922439;28;20055;-92
2021/09/30 12:48:31;;;;;;;4.75;2.88;;;12.60;99.90;;;;;;4922343;28;21703;-90
2021/09/30 12:51:04;;;;;;;5.70;2.17;;;12.80;99.90;;;;;;4917384;28;20106;-90
2021/09/30 12:53:39;;;;;;;6.15;2.45;;;12.90;99.90;;;;;;4920823;28;20062;-89
2021/09/30 12:56:08;;;;;;;5.43;2.92;;;13.20;99.90;;;;;;4903397;28;20054;-89
2021/09/30 12:58:36;;;;;;;3.03;2.55;;;13.50;99.90;;;;;;4920288;28;21184;-89
2021/09/30 13:01:30;;;;;;;7.22;3.50;;;13.60;99.90;;;;;;4916135;28;20141;-89
2021/09/30 13:04:03;;;;;;;3.00;2.05;;;13.70;99.90;;;;;;4919291;28;20659;-87
2021/09/30 13:06:31;;;;;;;4.75;2.15;;;13.70;99.90;;;;;;4919040;28;20078;-90
2021/09/30 13:08:58;;;;;;;4.18;2.10;;;13.70;99.90;;;;;;4917258;28;20094;-90
2021/09/30 13:11:35;;;;;;;4.25;2.50;;;13.70;99.90;;;;;;4919679;28;20123;-89
2021/09/30 13:14:21;;;;;;;3.45;2.80;;;13.60;99.90;;;;;;4917689;28;20146;-89
2021/09/30 13:17:08;;;;;;;2.50;1.90;;;13.60;99.90;;;;;;4919151;28;20854;-90
2021/09/30 13:19:59;;;;;;;3.42;2.50;;;13.50;99.90;;;;;;4919834;28;20149;-90
2021/09/30 13:22:38;;;;;;;3.45;1.70;;;13.50;99.90;;;;;;4918226;28;20051;-90
2021/09/30 13:25:09;;;;;;;4.88;2.13;;;13.70;99.90;;;;;;4916457;28;20130;-87
2021/09/30 13:27:38;;;;;;;8.13;2.00;;;13.80;99.90;;;;;;4920543;28;20097;-87
2021/09/30 13:30:07;;;;;;;2.05;1.55;;;14.00;99.90;;;;;;4919789;28;20135;-85
2021/09/30 13:32:35;;;;;;;6.25;2.15;;;14.20;99.90;;;;;;4921592;28;20099;-85
2021/09/30 13:35:04;;;;;;;6.43;2.08;;;14.30;99.90;;;;;;4924543;28;20054;-85
2021/09/30 13:37:32;;;;;;;1.40;1.30;;;14.40;99.90;;;;;;4941645;28;20082;-86
2021/09/30 13:40:02;;;;;;;2.58;1.10;;;14.50;99.90;;;;;;4938982;28;20046;-86
2021/09/30 13:42:32;;;;;;;1.90;1.20;;;14.60;99.90;;;;;;4940825;28;20047;-86
2021/09/30 13:44:59;;;;;;;4.88;2.45;;;14.70;99.90;;;;;;4905479;28;20055;-87
2021/09/30 13:47:28;;;;;;;2.25;1.35;;;14.80;99.90;;;;;;4919679;28;20058;-86
2021/09/30 13:49:58;;;;;;;4.38;1.92;;;14.70;99.90;;;;;;4939635;28;20559;-86
2021/09/30 13:52:27;;;;;;;6.07;2.45;;;14.70;99.90;;;;;;4923194;28;20047;-87
2021/09/30 13:54:55;;;;;;;1.50;1.10;;;14.50;99.90;;;;;;4937557;28;20054;-86
2021/09/30 13:57:22;;;;;;;4.55;0.88;;;14.40;99.90;;;;;;4907621;28;20065;-89
2021/09/30 13:59:49;;;;;;;1.98;1.00;;;14.30;99.90;;;;;;4929458;28;20089;-88
2021/09/30 14:02:38;;;;;;;1.10;1.00;;;14.20;99.90;;;;;;4923211;28;20074;-88
2021/09/30 14:05:07;;;;;;;17.13;1.48;;;14.10;99.90;;;;;;4908344;28;20046;-88
2021/09/30 14:07:40;;;;;;;1.73;0.90;;;14.10;99.90;;;;;;4907851;28;20483;-88
2021/09/30 14:10:11;;;;;;;1.48;0.70;;;14.00;99.90;;;;;;4922684;28;20054;-86
2021/09/30 14:12:38;;;;;;;;;;;14.00;99.90;;;;;;4941399;28;20058;-87
2021/09/30 14:15:06;;;;;;;1.52;0.57;;;13.90;99.90;;;;;;4936697;28;19930;-86
2021/09/30 14:17:34;;;;;;;2.45;1.15;;;13.90;99.90;;;;;;4942370;28;20057;-87
2021/09/30 14:20:03;;;;;;;1.10;0.73;;;14.00;99.90;;;;;;4937100;28;21207;-86
2021/09/30 14:22:30;;;;;;;0.88;0.60;;;14.30;99.90;;;;;;4939546;28;20050;-86
2021/09/30 14:24:57;;;;;;;1.80;0.65;;;14.60;99.90;;;;;;4937906;28;20492;-86
2021/09/30 14:27:27;;;;;;;2.00;1.33;;;15.00;99.90;;;;;;4921315;28;20129;-85
2021/09/30 14:29:54;;;;;;;3.28;1.55;;;15.30;99.90;;;;;;4938510;28;20046;-87
2021/09/30 14:32:21;;;;;;;1.30;0.65;;;15.60;99.90;;;;;;4939894;28;20059;-87
2021/09/30 14:34:52;;;;;;;5.57;0.80;;;15.70;99.90;;;;;;4921757;28;20062;-85
2021/09/30 14:37:20;;;;;;;5.45;1.20;;;15.50;99.90;;;;;;4938207;28;20071;-87
2021/09/30 14:39:48;;;;;;;2.15;0.88;;;15.10;99.90;;;;;;4922469;28;20058;-87
2021/09/30 14:42:16;;;;;;;2.15;1.08;;;15.00;99.90;;;;;;4939072;28;20050;-87
2021/09/30 14:44:46;;;;;;;2.97;1.20;;;15.00;99.90;;;;;;4936704;28;20061;-87
2021/09/30 14:47:14;;;;;;;1.92;0.95;;;14.70;99.90;;;;;;4916786;28;20218;-87
2021/09/30 14:49:42;;;;;;;6.78;1.98;;;14.60;99.90;;;;;;4937217;28;20918;-86
2021/09/30 14:52:11;;;;;;;2.95;1.13;;;14.50;99.90;;;;;;4938650;28;20039;-87
2021/09/30 14:54:39;;;;;;;2.30;0.93;;;14.30;99.90;;;;;;4920824;28;20085;-88
2021/09/30 14:57:06;;;;;;;1.33;0.75;;;14.10;99.90;;;;;;4919128;28;20634;-87
2021/09/30 14:59:33;;;;;;;1.77;1.15;;;13.80;99.90;;;;;;4934209;28;20054;-88
2021/09/30 15:02:02;;;;;;;1.83;1.08;;;13.60;99.90;;;;;;4920373;28;20406;-87
2021/09/30 15:04:29;;;;;;;0.93;0.93;;;13.60;99.90;;;;;;4937931;28;20123;-89
2021/09/30 15:06:56;;;;;;;1.17;1.08;;;13.50;99.90;;;;;;4948954;28;20113;-89
2021/09/30 15:09:23;;;;;;;1.60;1.10;;;13.40;99.90;;;;;;4924057;28;20046;-88
2021/09/30 15:11:50;;;;;;;3.08;1.10;;;13.30;99.90;;;;;;4923963;28;20051;-87
2021/09/30 15:14:17;;;;;;;1.45;1.20;;;13.30;99.90;;;;;;4940909;28;20061;-86
2021/09/30 15:16:57;;;;;;;1.45;1.10;;;13.20;99.90;;;;;;4940904;28;20670;-88
2021/09/30 15:19:26;;;;;;;1.60;1.20;;;13.20;99.90;;;;;;4940276;28;20047;-88
2021/09/30 15:21:54;;;;;;;2.17;1.40;;;13.10;99.90;;;;;;4929773;28;20058;-87
2021/09/30 15:24:21;;;;;;;6.05;1.33;;;13.10;99.90;;;;;;4940223;28;20138;-87
2021/09/30 15:26:49;;;;;;;3.78;1.33;;;13.10;99.90;;;;;;4939062;28;20493;-88
2021/09/30 15:29:17;;;;;;;3.50;1.50;;;13.00;99.90;;;;;;4910854;28;20095;-87
2021/09/30 15:31:46;;;;;;;4.50;1.20;;;13.00;99.90;;;;;;4910799;28;20109;-88
2021/09/30 15:34:16;;;;;;;3.72;1.25;;;12.90;99.90;;;;;;4921191;28;20050;-90
2021/09/30 15:36:43;;;;;;;;;;;12.90;99.90;;;;;;4919557;28;20121;-84
2021/09/30 15:39:10;;;;;;;4.30;1.50;;;12.80;99.90;;;;;;4918411;28;20004;-83
2021/09/30 15:41:37;;;;;;;3.70;1.70;;;12.80;99.90;;;;;;4921729;28;20548;-86
2021/09/30 15:44:05;;;;;;;3.10;1.50;;;12.70;99.90;;;;;;4921766;28;20087;-84
2021/09/30 15:46:32;;;;;;;4.50;1.40;;;12.70;99.90;;;;;;4916097;28;20098;-83
2021/09/30 15:49:01;;;;;;;4.90;1.80;;;12.70;99.90;;;;;;4921385;28;20051;-82
2021/09/30 15:51:28;;;;;;;4.57;1.80;;;12.60;99.90;;;;;;4920824;28;20062;-83
2021/09/30 15:53:55;;;;;;;3.17;1.80;;;12.60;99.90;;;;;;4917968;28;20880;-82
2021/09/30 15:56:22;;;;;;;2.85;1.45;;;12.60;99.90;;;;;;4919816;28;20074;-83